Time;durP1;ratioP1;P1;durP2;ratioP2;P2;SDS_P1;SDS_P2;PMS_P1;PMS_P2;Temp;Humidity;BMP_temperature;BMP_pressure;BME280_temperature;BME280_humidity;BME280_pressure;Samples;Min_cycle;Max_cycle;Signal;HPM_P1;HPM_P2
2021/03/01 00:00:34;;;;;;;12.20;6.43;;;;;;;;;;6184812;23;20001;-85
2021/03/01 00:03:00;;;;;;;14.80;7.90;;;;;;;;;;6184792;23;20009;-85
2021/03/01 00:05:26;;;;;;;11.30;6.90;;;;;;;;;;6184790;23;20009;-85
2021/03/01 00:07:52;;;;;;;13.23;6.90;;;;;;;;;;6173329;23;20083;-85
2021/03/01 00:10:18;;;;;;;11.57;6.93;;;;;;;;;;6182672;23;20009;-85
2021/03/01 00:12:46;;;;;;;14.53;7.33;;;;;;;;;;6182960;23;20024;-84
2021/03/01 00:15:13;;;;;;;14.00;6.70;;;;;;;;;;6182642;23;20040;-85
2021/03/01 00:17:40;;;;;;;12.60;6.93;;;;;;;;;;6183163;23;19997;-85
2021/03/01 00:20:07;;;;;;;14.37;7.20;;;;;;;;;;6181364;23;20005;-85
2021/03/01 00:22:34;;;;;;;11.17;6.30;;;;;;;;;;6182250;23;20076;-84
2021/03/01 00:25:00;;;;;;;11.57;6.33;;;;;;;;;;6182100;23;20428;-85
2021/03/01 00:27:26;;;;;;;11.60;6.17;;;;;;;;;;6181653;23;20013;-85
2021/03/01 00:29:52;;;;;;;12.07;6.43;;;;;;;;;;6181614;23;20337;-85
2021/03/01 00:32:18;;;;;;;11.20;6.27;;;;;;;;;;6181187;23;20005;-85
2021/03/01 00:34:44;;;;;;;12.70;6.93;;;;;;;;;;6182114;23;20008;-85
2021/03/01 00:37:10;;;;;;;12.90;6.53;;;;;;;;;;6182725;23;20029;-85
2021/03/01 00:39:36;;;;;;;12.33;6.40;;;;;;;;;;6182583;23;20433;-85
2021/03/01 00:42:02;;;;;;;12.37;6.87;;;;;;;;;;6183073;23;20097;-85
2021/03/01 00:44:28;;;;;;;12.93;6.90;;;;;;;;;;6184357;23;20065;-87
2021/03/01 00:46:54;;;;;;;14.37;7.23;;;;;;;;;;6183185;23;20008;-85
2021/03/01 00:49:20;;;;;;;12.47;6.63;;;;;;;;;;6184120;23;20005;-85
2021/03/01 00:51:46;;;;;;;14.40;7.07;;;;;;;;;;6188846;23;19997;-90
2021/03/01 00:54:12;;;;;;;13.60;6.90;;;;;;;;;;6197216;23;20010;-85
2021/03/01 00:56:38;;;;;;;14.43;6.50;;;;;;;;;;6182819;23;20164;-87
2021/03/01 00:59:04;;;;;;;15.03;7.10;;;;;;;;;;6207590;23;20013;-84
2021/03/01 01:01:33;;;;;;;13.00;7.00;;;;;;;;;;6212633;23;20036;-86
2021/03/01 01:03:59;;;;;;;12.40;7.33;;;;;;;;;;6212911;23;20001;-84
2021/03/01 01:06:25;;;;;;;14.73;7.83;;;;;;;;;;6212001;23;20012;-85
2021/03/01 01:08:51;;;;;;;14.03;7.13;;;;;;;;;;6211912;23;20324;-84
2021/03/01 01:11:17;;;;;;;16.07;8.47;;;;;;;;;;6211251;23;20008;-84
2021/03/01 01:13:43;;;;;;;15.93;8.10;;;;;;;;;;6211875;23;20009;-84
2021/03/01 01:16:09;;;;;;;14.57;7.67;;;;;;;;;;6211342;23;20016;-84
2021/03/01 01:18:35;;;;;;;14.07;7.90;;;;;;;;;;6211688;23;20001;-84
2021/03/01 01:21:01;;;;;;;14.37;8.00;;;;;;;;;;6211378;23;20001;-84
2021/03/01 01:23:27;;;;;;;15.23;8.03;;;;;;;;;;6210983;23;20012;-84
2021/03/01 01:25:53;;;;;;;13.70;8.00;;;;;;;;;;6211339;23;20009;-84
2021/03/01 01:28:19;;;;;;;14.60;8.20;;;;;;;;;;6210985;23;20011;-85
2021/03/01 01:30:46;;;;;;;17.47;8.30;;;;;;;;;;6212432;23;20096;-84
2021/03/01 01:33:12;;;;;;;14.97;8.30;;;;;;;;;;6211225;23;20009;-85
2021/03/01 01:35:38;;;;;;;16.83;8.10;;;;;;;;;;6210645;23;20494;-84
2021/03/01 01:38:05;;;;;;;15.80;8.30;;;;;;;;;;6211044;23;20091;-84
2021/03/01 01:40:31;;;;;;;16.93;8.67;;;;;;;;;;6212393;23;20064;-84
2021/03/01 01:42:57;;;;;;;17.93;8.93;;;;;;;;;;6217092;23;20005;-86
2021/03/01 01:45:24;;;;;;;16.90;8.30;;;;;;;;;;6218523;23;20008;-87
2021/03/01 01:47:51;;;;;;;17.10;8.77;;;;;;;;;;6212182;23;20009;-84
2021/03/01 01:50:21;;;;;;;17.97;8.53;;;;;;;;;;6212363;23;20012;-84
2021/03/01 01:52:48;;;;;;;15.57;8.17;;;;;;;;;;6211190;23;20008;-84
2021/03/01 01:55:15;;;;;;;15.50;8.13;;;;;;;;;;6211124;23;20095;-84
2021/03/01 01:57:42;;;;;;;14.57;7.93;;;;;;;;;;6210391;23;20064;-85
2021/03/01 02:00:22;;;;;;;14.70;7.83;;;;;;;;;;6211262;23;20055;-86
2021/03/01 02:02:55;;;;;;;14.90;8.10;;;;;;;;;;6211562;23;20020;-85
2021/03/01 02:05:21;;;;;;;13.20;8.17;;;;;;;;;;6211346;23;20005;-84
2021/03/01 02:07:47;;;;;;;13.90;7.63;;;;;;;;;;6210666;23;20011;-85
2021/03/01 02:10:16;;;;;;;15.83;7.93;;;;;;;;;;6211053;23;20036;-84
2021/03/01 02:13:09;;;;;;;15.70;7.53;;;;;;;;;;6210982;23;20091;-84
2021/03/01 02:15:42;;;;;;;14.57;8.13;;;;;;;;;;6163223;23;20043;-84
2021/03/01 02:18:08;;;;;;;16.03;8.03;;;;;;;;;;6211389;23;20051;-84
2021/03/01 02:20:34;;;;;;;15.40;8.30;;;;;;;;;;6211252;23;20001;-86
2021/03/01 02:23:00;;;;;;;14.63;7.97;;;;;;;;;;6211249;23;20020;-86
2021/03/01 02:25:28;;;;;;;15.10;7.93;;;;;;;;;;6210969;23;20008;-86
2021/03/01 02:28:00;;;;;;;14.00;8.33;;;;;;;;;;6211843;23;20385;-85
2021/03/01 02:30:30;;;;;;;12.35;6.18;;;;;;;;;;6210941;23;20005;-87
2021/03/01 02:33:08;;;;;;;13.73;7.87;;;;;;;;;;6211315;23;20012;-84
2021/03/01 02:35:35;;;;;;;15.70;9.40;;;;;;;;;;6211041;23;20447;-85
2021/03/01 02:38:03;;;;;;;15.53;7.33;;;;;;;;;;6211297;23;20000;-85
2021/03/01 02:40:30;;;;;;;15.20;8.63;;;;;;;;;;6210518;23;20003;-87
2021/03/01 02:42:56;;;;;;;15.57;7.80;;;;;;;;;;6210956;23;20001;-85
2021/03/01 02:45:22;;;;;;;16.07;8.63;;;;;;;;;;6210749;23;20010;-87
2021/03/01 02:47:49;;;;;;;14.13;8.17;;;;;;;;;;6211091;23;20016;-84
2021/03/01 02:50:15;;;;;;;15.07;8.27;;;;;;;;;;6211272;23;20437;-87
2021/03/01 02:52:41;;;;;;;15.07;7.83;;;;;;;;;;6210876;23;20091;-86
2021/03/01 02:55:08;;;;;;;15.03;7.80;;;;;;;;;;6211649;23;20001;-86
2021/03/01 02:57:35;;;;;;;14.70;7.67;;;;;;;;;;6211060;23;20012;-85
2021/03/01 03:00:02;;;;;;;14.50;8.00;;;;;;;;;;6211173;23;20009;-85
2021/03/01 03:02:28;;;;;;;16.80;7.73;;;;;;;;;;6210778;23;20084;-85
2021/03/01 03:04:55;;;;;;;13.63;7.23;;;;;;;;;;6187344;23;20012;-85
2021/03/01 03:07:22;;;;;;;16.63;8.20;;;;;;;;;;6211189;23;20009;-86
2021/03/01 03:09:48;;;;;;;13.73;8.00;;;;;;;;;;6210815;23;20009;-85
2021/03/01 03:12:15;;;;;;;17.10;8.57;;;;;;;;;;6210745;23;20020;-85
2021/03/01 03:14:42;;;;;;;14.50;7.23;;;;;;;;;;6210774;23;20060;-85
2021/03/01 03:17:08;;;;;;;14.37;7.93;;;;;;;;;;6209988;23;20005;-87
2021/03/01 03:19:34;;;;;;;16.00;9.00;;;;;;;;;;6210534;23;20043;-85
2021/03/01 03:22:00;;;;;;;15.67;8.20;;;;;;;;;;6209825;23;20105;-85
2021/03/01 03:24:26;;;;;;;12.87;7.63;;;;;;;;;;6210942;23;20051;-85
2021/03/01 03:26:52;;;;;;;17.80;8.83;;;;;;;;;;6211561;23;20033;-85
2021/03/01 03:29:18;;;;;;;16.00;8.37;;;;;;;;;;6210840;23;20036;-86
2021/03/01 03:31:44;;;;;;;15.33;8.77;;;;;;;;;;6211201;23;20024;-85
2021/03/01 03:34:10;;;;;;;15.77;8.83;;;;;;;;;;6211996;23;20093;-84
2021/03/01 03:36:40;;;;;;;14.63;8.23;;;;;;;;;;6212592;23;20052;-85
2021/03/01 03:39:08;;;;;;;16.00;7.70;;;;;;;;;;6212076;23;19998;-86
2021/03/01 03:41:35;;;;;;;17.50;8.57;;;;;;;;;;6211397;23;20004;-86
2021/03/01 03:44:01;;;;;;;17.57;9.57;;;;;;;;;;6211542;23;20001;-85
2021/03/01 03:46:28;;;;;;;18.50;8.57;;;;;;;;;;6212671;23;20005;-85
2021/03/01 03:48:55;;;;;;;15.27;8.30;;;;;;;;;;6189002;23;20001;-85
2021/03/01 03:51:22;;;;;;;16.70;8.50;;;;;;;;;;6213276;23;20012;-85
2021/03/01 03:53:50;;;;;;;15.67;8.10;;;;;;;;;;6212263;23;20052;-85
2021/03/01 03:56:21;;;;;;;15.53;8.70;;;;;;;;;;6212596;23;20321;-85
2021/03/01 03:58:48;;;;;;;15.30;8.40;;;;;;;;;;6211733;23;20035;-86
2021/03/01 04:01:15;;;;;;;16.03;9.07;;;;;;;;;;6211914;23;20001;-87
2021/03/01 04:03:42;;;;;;;18.60;8.23;;;;;;;;;;6212700;23;20001;-86
2021/03/01 04:06:10;;;;;;;15.93;8.07;;;;;;;;;;6212046;23;20001;-84
2021/03/01 04:08:37;;;;;;;17.40;8.27;;;;;;;;;;6211685;23;20425;-85
2021/03/01 04:11:03;;;;;;;14.97;8.60;;;;;;;;;;6212287;23;20047;-88
2021/03/01 04:13:36;;;;;;;16.73;9.30;;;;;;;;;;6212351;23;20011;-85
2021/03/01 04:16:02;;;;;;;14.93;8.63;;;;;;;;;;6213447;23;20001;-85
2021/03/01 04:18:30;;;;;;;16.23;8.80;;;;;;;;;;6213164;23;20036;-85
2021/03/01 04:20:56;;;;;;;17.70;9.07;;;;;;;;;;6213298;23;20001;-85
2021/03/01 04:23:23;;;;;;;15.33;8.17;;;;;;;;;;6213253;23;20005;-85
2021/03/01 04:25:51;;;;;;;17.13;8.97;;;;;;;;;;6212885;23;20012;-88
2021/03/01 04:28:18;;;;;;;14.10;8.47;;;;;;;;;;6213014;23;20375;-85
2021/03/01 04:30:44;;;;;;;15.53;7.80;;;;;;;;;;6213166;23;20088;-86
2021/03/01 04:33:11;;;;;;;17.53;8.80;;;;;;;;;;6189495;23;20001;-85
2021/03/01 04:35:38;;;;;;;16.13;8.60;;;;;;;;;;6213135;23;20024;-84
2021/03/01 04:38:04;;;;;;;15.67;8.33;;;;;;;;;;6213187;23;20008;-85
2021/03/01 04:40:30;;;;;;;15.40;8.50;;;;;;;;;;6212657;23;20001;-86
2021/03/01 04:42:57;;;;;;;16.73;9.10;;;;;;;;;;6212747;23;20012;-85
2021/03/01 04:45:23;;;;;;;16.83;9.50;;;;;;;;;;6213241;23;20013;-85
2021/03/01 04:47:50;;;;;;;17.30;9.30;;;;;;;;;;6213352;23;20005;-85
2021/03/01 04:50:17;;;;;;;14.57;8.50;;;;;;;;;;6213311;23;20076;-84
2021/03/01 04:52:44;;;;;;;17.20;8.53;;;;;;;;;;6213853;23;20075;-84
2021/03/01 04:55:11;;;;;;;14.70;8.47;;;;;;;;;;6213403;23;20163;-85
2021/03/01 04:57:38;;;;;;;13.33;7.37;;;;;;;;;;6214068;23;20005;-86
2021/03/01 05:00:06;;;;;;;17.63;8.93;;;;;;;;;;6232052;23;20048;-91
2021/03/01 05:02:32;;;;;;;14.70;8.13;;;;;;;;;;6229470;23;20302;-84
2021/03/01 05:05:01;;;;;;;16.47;8.73;;;;;;;;;;6213562;23;20005;-88
2021/03/01 05:07:29;;;;;;;16.00;8.63;;;;;;;;;;6213829;23;20076;-85
2021/03/01 05:09:56;;;;;;;15.10;7.93;;;;;;;;;;6213237;23;20005;-85
2021/03/01 05:12:22;;;;;;;16.30;8.80;;;;;;;;;;6212647;23;20019;-85
2021/03/01 05:14:48;;;;;;;14.63;8.07;;;;;;;;;;6212458;23;20001;-85
2021/03/01 05:17:14;;;;;;;16.40;8.40;;;;;;;;;;6213270;23;20005;-85
2021/03/01 05:19:40;;;;;;;15.83;8.73;;;;;;;;;;6189503;23;20019;-85
2021/03/01 05:22:06;;;;;;;14.27;8.37;;;;;;;;;;6214006;23;20055;-85
2021/03/01 05:24:32;;;;;;;15.13;8.50;;;;;;;;;;6212839;23;20008;-85
2021/03/01 05:26:58;;;;;;;14.30;8.30;;;;;;;;;;6212556;23;20548;-85
2021/03/01 05:29:24;;;;;;;14.60;8.03;;;;;;;;;;6212632;23;20341;-85
2021/03/01 05:31:50;;;;;;;14.97;8.30;;;;;;;;;;6212334;23;20055;-85
2021/03/01 05:34:21;;;;;;;17.80;9.23;;;;;;;;;;6213070;23;20005;-85
2021/03/01 05:36:47;;;;;;;16.87;8.50;;;;;;;;;;6213128;23;19998;-85
2021/03/01 05:39:13;;;;;;;15.43;8.30;;;;;;;;;;6211969;23;20056;-85
2021/03/01 05:41:40;;;;;;;15.63;8.30;;;;;;;;;;6213168;23;20001;-85
2021/03/01 05:44:09;;;;;;;15.67;8.47;;;;;;;;;;6213057;23;20443;-85
2021/03/01 05:46:36;;;;;;;14.97;8.60;;;;;;;;;;6235032;23;19991;-93
2021/03/01 05:49:03;;;;;;;17.27;8.30;;;;;;;;;;6233349;23;20043;-87
2021/03/01 05:51:29;;;;;;;17.67;9.43;;;;;;;;;;6213466;23;20451;-85
2021/03/01 05:54:01;;;;;;;15.90;8.27;;;;;;;;;;6212686;23;20013;-84
2021/03/01 05:56:27;;;;;;;17.03;8.70;;;;;;;;;;6189132;23;19997;-84
2021/03/01 05:58:53;;;;;;;16.23;8.67;;;;;;;;;;6211688;23;20067;-86
2021/03/01 06:01:19;;;;;;;14.87;8.80;;;;;;;;;;6210543;23;20340;-87
2021/03/01 06:03:46;;;;;;;17.73;9.50;;;;;;;;;;6205301;23;20020;-86
2021/03/01 06:06:12;;;;;;;17.10;9.37;;;;;;;;;;6184687;23;20028;-86
2021/03/01 06:08:39;;;;;;;16.63;8.43;;;;;;;;;;6209313;23;20016;-86
2021/03/01 06:11:06;;;;;;;18.70;10.00;;;;;;;;;;6207553;23;20005;-87
2021/03/01 06:13:32;;;;;;;17.90;8.70;;;;;;;;;;6208102;23;20013;-87
2021/03/01 06:15:59;;;;;;;15.70;8.50;;;;;;;;;;6208162;23;20032;-86
2021/03/01 06:18:25;;;;;;;14.73;8.13;;;;;;;;;;6207498;23;20043;-86
2021/03/01 06:20:52;;;;;;;14.13;8.77;;;;;;;;;;6208299;23;20013;-86
2021/03/01 06:23:31;;;;;;;14.20;8.20;;;;;;;;;;6204608;23;20005;-87
2021/03/01 06:26:16;;;;;;;17.13;9.00;;;;;;;;;;6206875;23;20310;-88
2021/03/01 06:28:45;;;;;;;17.80;8.87;;;;;;;;;;6205211;23;20033;-87
2021/03/01 06:31:30;;;;;;;17.60;9.23;;;;;;;;;;6206486;23;20008;-87
2021/03/01 06:34:16;;;;;;;18.07;8.73;;;;;;;;;;6207294;23;20329;-86
2021/03/01 06:36:57;;;;;;;19.00;9.10;;;;;;;;;;6208430;23;20032;-85
2021/03/01 06:39:29;;;;;;;19.00;8.90;;;;;;;;;;6208637;23;20009;-86
2021/03/01 06:41:55;;;;;;;21.35;9.70;;;;;;;;;;6203938;23;19997;-86
2021/03/01 06:44:23;;;;;;;19.93;10.33;;;;;;;;;;6202205;23;20088;-86
2021/03/01 06:46:51;;;;;;;17.70;9.73;;;;;;;;;;6207569;23;20495;-87
2021/03/01 06:49:17;;;;;;;17.63;8.93;;;;;;;;;;6203219;23;20031;-89
2021/03/01 06:51:43;;;;;;;17.43;9.33;;;;;;;;;;6205901;23;20472;-87
2021/03/01 06:54:10;;;;;;;17.10;9.23;;;;;;;;;;6207128;23;20001;-90
2021/03/01 06:56:41;;;;;;;17.23;8.70;;;;;;;;;;6186163;23;20017;-87
2021/03/01 06:59:25;;;;;;;12.33;6.67;;;;;;;;;;6207866;23;20033;-88
2021/03/01 07:01:53;;;;;;;16.37;9.03;;;;;;;;;;6208893;23;20040;-88
2021/03/01 07:04:26;;;;;;;17.67;9.53;;;;;;;;;;6203712;23;20015;-87
2021/03/01 07:06:56;;;;;;;16.07;9.40;;;;;;;;;;6207612;23;20826;-87
2021/03/01 07:09:32;;;;;;;17.50;9.43;;;;;;;;;;6205099;23;20067;-86
2021/03/01 07:11:59;;;;;;;15.00;8.83;;;;;;;;;;6205711;23;20009;-86
2021/03/01 07:14:26;;;;;;;17.23;9.03;;;;;;;;;;6206788;23;20004;-87
2021/03/01 07:16:59;;;;;;;16.10;9.73;;;;;;;;;;6181718;23;20383;-87
2021/03/01 07:19:27;;;;;;;18.77;8.93;;;;;;;;;;6205876;23;20273;-88
2021/03/01 07:21:54;;;;;;;18.03;9.30;;;;;;;;;;6206753;23;20012;-88
2021/03/01 07:24:21;;;;;;;15.83;9.50;;;;;;;;;;6206265;23;20013;-88
2021/03/01 07:26:47;;;;;;;17.27;9.07;;;;;;;;;;6206777;23;20005;-88
2021/03/01 07:29:17;;;;;;;15.97;8.70;;;;;;;;;;6206074;23;20028;-87
2021/03/01 07:31:47;;;;;;;17.60;9.63;;;;;;;;;;6206653;23;20433;-87
2021/03/01 07:34:14;;;;;;;17.27;8.87;;;;;;;;;;6182919;23;20396;-87
2021/03/01 07:36:40;;;;;;;16.00;9.30;;;;;;;;;;6207174;23;20309;-89
2021/03/01 07:39:07;;;;;;;16.27;9.97;;;;;;;;;;6206153;23;20491;-87
2021/03/01 07:41:36;;;;;;;19.60;10.30;;;;;;;;;;6206448;23;20005;-87
2021/03/01 07:44:03;;;;;;;16.63;9.00;;;;;;;;;;6183388;23;20005;-87
2021/03/01 07:46:30;;;;;;;15.87;9.67;;;;;;;;;;6206106;23;20368;-87
2021/03/01 07:48:56;;;;;;;17.10;9.20;;;;;;;;;;6205471;23;20128;-88
2021/03/01 07:51:39;;;;;;;14.80;8.43;;;;;;;;;;6206162;23;20005;-88
2021/03/01 07:54:06;;;;;;;21.03;8.97;;;;;;;;;;6182522;23;20081;-87
2021/03/01 07:56:39;;;;;;;15.83;8.87;;;;;;;;;;6206420;23;20008;-88
2021/03/01 07:59:06;;;;;;;16.88;8.15;;;;;;;;;;6205209;23;20367;-88
2021/03/01 08:01:33;;;;;;;16.03;7.97;;;;;;;;;;6205470;23;20112;-87
2021/03/01 08:03:59;;;;;;;15.27;8.10;;;;;;;;;;6204980;23;20005;-87
2021/03/01 08:06:45;;;;;;;14.67;8.13;;;;;;;;;;6202384;23;20087;-87
2021/03/01 08:09:14;;;;;;;15.27;7.77;;;;;;;;;;6200939;23;20013;-86
2021/03/01 08:11:41;;;;;;;15.50;7.57;;;;;;;;;;6202480;23;20012;-87
2021/03/01 08:14:12;;;;;;;13.83;7.17;;;;;;;;;;6205313;23;20008;-87
2021/03/01 08:16:38;;;;;;;13.20;7.30;;;;;;;;;;6205179;23;20012;-87
2021/03/01 08:19:04;;;;;;;15.53;7.20;;;;;;;;;;6194421;23;20008;-87
2021/03/01 08:21:49;;;;;;;12.43;7.03;;;;;;;;;;6191148;23;20009;-86
2021/03/01 08:24:34;;;;;;;13.93;6.77;;;;;;;;;;6209087;23;20001;-87
2021/03/01 08:27:00;;;;;;;10.03;6.27;;;;;;;;;;6205648;23;20020;-87
2021/03/01 08:29:26;;;;;;;11.00;6.47;;;;;;;;;;6182641;23;20003;-87
2021/03/01 08:32:12;;;;;;;11.40;6.40;;;;;;;;;;6208187;23;20483;-87
2021/03/01 08:34:38;;;;;;;11.80;6.57;;;;;;;;;;6183965;23;20005;-86
2021/03/01 08:37:04;;;;;;;12.13;6.93;;;;;;;;;;6208966;23;20004;-86
2021/03/01 08:39:49;;;;;;;12.87;6.73;;;;;;;;;;6207830;23;20483;-87
2021/03/01 08:42:35;;;;;;;11.57;6.20;;;;;;;;;;6208569;23;20001;-87
2021/03/01 08:45:01;;;;;;;11.37;6.10;;;;;;;;;;6204777;23;20012;-87
2021/03/01 08:47:27;;;;;;;12.03;6.30;;;;;;;;;;6207304;23;20001;-87
2021/03/01 08:49:54;;;;;;;11.30;6.53;;;;;;;;;;6206400;23;20005;-88
2021/03/01 08:52:22;;;;;;;11.60;6.60;;;;;;;;;;6207017;23;20005;-89
2021/03/01 08:54:48;;;;;;;12.93;6.77;;;;;;;;;;6180849;23;20001;-89
2021/03/01 08:57:14;;;;;;;10.77;5.80;;;;;;;;;;6208388;23;20016;-90
2021/03/01 08:59:40;;;;;;;11.27;5.70;;;;;;;;;;6211176;23;20000;-89
2021/03/01 09:02:06;;;;;;;11.67;6.10;;;;;;;;;;6212217;23;20009;-89
2021/03/01 09:04:32;;;;;;;12.70;6.63;;;;;;;;;;6211664;23;20435;-90
2021/03/01 09:07:09;;;;;;;12.13;6.00;;;;;;;;;;6213427;23;19996;-89
2021/03/01 09:09:46;;;;;;;13.20;6.60;;;;;;;;;;6209824;23;20000;-90
2021/03/01 09:12:17;;;;;;;13.20;6.83;;;;;;;;;;6212416;23;20005;-90
2021/03/01 09:14:43;;;;;;;12.50;6.83;;;;;;;;;;6211782;23;20099;-90
2021/03/01 09:17:09;;;;;;;12.87;6.80;;;;;;;;;;6213053;23;20119;-89
2021/03/01 09:19:35;;;;;;;12.63;6.30;;;;;;;;;;6210335;23;20015;-88
2021/03/01 09:22:01;;;;;;;10.93;6.17;;;;;;;;;;6212399;23;20008;-90
2021/03/01 09:24:30;;;;;;;13.20;6.47;;;;;;;;;;6215660;23;19997;-90
2021/03/01 09:26:56;;;;;;;12.23;6.13;;;;;;;;;;6237139;23;20000;-90
2021/03/01 09:29:23;;;;;;;11.70;6.37;;;;;;;;;;6234853;23;20080;-90
2021/03/01 09:31:50;;;;;;;11.87;6.50;;;;;;;;;;6214048;23;20004;-89
2021/03/01 09:34:17;;;;;;;11.17;6.17;;;;;;;;;;6213592;23;20039;-89
2021/03/01 09:36:48;;;;;;;13.93;7.00;;;;;;;;;;6213333;23;20040;-89
2021/03/01 09:39:16;;;;;;;11.97;6.30;;;;;;;;;;6212137;23;20189;-89
2021/03/01 09:41:42;;;;;;;11.57;6.20;;;;;;;;;;6217869;23;20400;-89
2021/03/01 09:44:09;;;;;;;12.23;6.30;;;;;;;;;;6211520;23;20558;-89
2021/03/01 09:46:36;;;;;;;10.77;5.73;;;;;;;;;;6212545;23;20008;-89
2021/03/01 09:49:05;;;;;;;11.37;6.23;;;;;;;;;;6212091;23;20004;-90
2021/03/01 09:51:31;;;;;;;12.43;6.60;;;;;;;;;;6212649;23;20670;-89
2021/03/01 09:54:01;;;;;;;11.70;6.23;;;;;;;;;;6211371;23;20012;-89
2021/03/01 09:56:39;;;;;;;10.13;6.60;;;;;;;;;;6210404;23;20008;-88
2021/03/01 09:59:05;;;;;;;11.50;6.80;;;;;;;;;;6210854;23;20012;-88
2021/03/01 10:01:31;;;;;;;10.37;6.13;;;;;;;;;;6212309;23;20055;-88
2021/03/01 10:03:57;;;;;;;10.73;5.80;;;;;;;;;;6213092;23;20016;-89
2021/03/01 10:06:44;;;;;;;12.43;5.83;;;;;;;;;;6212631;23;20009;-88
2021/03/01 10:09:11;;;;;;;13.80;6.97;;;;;;;;;;6188154;23;20005;-88
2021/03/01 10:11:38;;;;;;;10.90;6.03;;;;;;;;;;6213860;23;20540;-89
2021/03/01 10:14:05;;;;;;;11.37;5.57;;;;;;;;;;6209811;23;20004;-88
2021/03/01 10:16:31;;;;;;;13.87;6.20;;;;;;;;;;6211925;23;20008;-89
2021/03/01 10:19:19;;;;;;;11.93;5.80;;;;;;;;;;6211426;23;20033;-89
2021/03/01 10:21:47;;;;;;;11.00;5.57;;;;;;;;;;6186444;23;20336;-89
2021/03/01 10:24:13;;;;;;;10.53;5.80;;;;;;;;;;6212076;23;20009;-88
2021/03/01 10:27:10;;;;;;;10.33;5.47;;;;;;;;;;6212578;23;20016;-89
2021/03/01 10:29:37;;;;;;;14.87;5.63;;;;;;;;;;6167942;23;20352;-88
2021/03/01 10:32:05;;;;;;;11.20;5.27;;;;;;;;;;6211649;23;20008;-89
2021/03/01 10:34:38;;;;;;;10.18;5.00;;;;;;;;;;6211832;23;20087;-88
2021/03/01 10:37:05;;;;;;;9.45;5.03;;;;;;;;;;6211491;23;20000;-88
2021/03/01 10:39:36;;;;;;;8.45;5.28;;;;;;;;;;6213209;23;20028;-89
2021/03/01 10:42:13;;;;;;;10.15;5.03;;;;;;;;;;6211622;23;20000;-89
2021/03/01 10:44:46;;;;;;;9.15;5.15;;;;;;;;;;6211550;23;20004;-89
2021/03/01 10:47:13;;;;;;;9.40;4.90;;;;;;;;;;6211868;23;20013;-89
2021/03/01 10:49:39;;;;;;;10.95;4.70;;;;;;;;;;6211055;23;20012;-89
2021/03/01 10:52:07;;;;;;;7.88;4.60;;;;;;;;;;6211631;23;20055;-88
2021/03/01 10:54:33;;;;;;;8.77;4.53;;;;;;;;;;6213334;23;20055;-88
2021/03/01 10:56:59;;;;;;;9.18;4.35;;;;;;;;;;6211264;23;20000;-89
2021/03/01 10:59:25;;;;;;;8.90;4.57;;;;;;;;;;6210863;23;20016;-89
2021/03/01 11:01:51;;;;;;;11.65;4.70;;;;;;;;;;6212846;23;20339;-92
2021/03/01 11:04:18;;;;;;;6.43;3.75;;;;;;;;;;6212209;23;20059;-91
2021/03/01 11:06:45;;;;;;;8.40;4.30;;;;;;;;;;6211800;23;20016;-92
2021/03/01 11:09:12;;;;;;;6.30;3.55;;;;;;;;;;6212496;23;20462;-91
2021/03/01 11:11:39;;;;;;;8.02;4.00;;;;;;;;;;6214630;23;20007;-92
2021/03/01 11:14:07;;;;;;;6.05;3.50;;;;;;;;;;6208914;23;20009;-92
2021/03/01 11:16:33;;;;;;;8.45;3.60;;;;;;;;;;6207691;23;20000;-92
2021/03/01 11:18:59;;;;;;;8.35;3.60;;;;;;;;;;6207827;23;20000;-91
2021/03/01 11:21:25;;;;;;;5.68;3.35;;;;;;;;;;6212060;23;20005;-91
2021/03/01 11:23:52;;;;;;;7.00;3.75;;;;;;;;;;6212126;23;20091;-91
2021/03/01 11:26:18;;;;;;;8.88;3.05;;;;;;;;;;6214387;23;20090;-91
2021/03/01 11:28:44;;;;;;;6.25;3.15;;;;;;;;;;6212890;23;20009;-92
2021/03/01 11:31:10;;;;;;;11.18;3.42;;;;;;;;;;6214509;23;20087;-93
2021/03/01 11:33:38;;;;;;;5.90;3.28;;;;;;;;;;6213522;23;20008;-92
2021/03/01 11:36:04;;;;;;;7.05;3.22;;;;;;;;;;6217111;23;20012;-92
2021/03/01 11:38:30;;;;;;;7.70;3.55;;;;;;;;;;6213146;23;20076;-92
2021/03/01 11:41:00;;;;;;;8.38;3.38;;;;;;;;;;6215385;23;20001;-91
2021/03/01 11:43:27;;;;;;;7.35;3.20;;;;;;;;;;6214251;23;20574;-91
2021/03/01 11:45:53;;;;;;;6.40;3.30;;;;;;;;;;6212208;23;20008;-91
2021/03/01 11:48:19;;;;;;;8.20;3.20;;;;;;;;;;6209497;23;20059;-92
2021/03/01 11:50:46;;;;;;;7.78;3.13;;;;;;;;;;6211175;23;20092;-92
2021/03/01 11:53:13;;;;;;;5.07;2.70;;;;;;;;;;6210093;23;20109;-92
2021/03/01 11:55:40;;;;;;;7.43;3.10;;;;;;;;;;6213072;23;20022;-92
2021/03/01 11:58:06;;;;;;;4.97;2.72;;;;;;;;;;6212838;23;20225;-93
2021/03/01 12:00:32;;;;;;;5.70;2.78;;;;;;;;;;6210888;23;19997;-93
2021/03/01 12:02:58;;;;;;;4.57;2.63;;;;;;;;;;6212464;23;20012;-93
2021/03/01 12:05:24;;;;;;;6.93;2.60;;;;;;;;;;6212516;23;20008;-92
2021/03/01 12:07:50;;;;;;;6.75;3.00;;;;;;;;;;6214781;23;20035;-92
2021/03/01 12:10:16;;;;;;;5.80;3.25;;;;;;;;;;6217599;23;20001;-92
2021/03/01 12:12:42;;;;;;;4.80;2.60;;;;;;;;;;6219121;23;20005;-92
2021/03/01 12:15:09;;;;;;;4.82;2.67;;;;;;;;;;6217502;23;20091;-93
2021/03/01 12:17:35;;;;;;;7.50;2.80;;;;;;;;;;6217508;23;20059;-91
2021/03/01 12:20:01;;;;;;;4.43;2.50;;;;;;;;;;6216692;23;20023;-92
2021/03/01 12:22:27;;;;;;;5.00;2.85;;;;;;;;;;6217850;23;20031;-91
2021/03/01 12:24:53;;;;;;;4.95;2.58;;;;;;;;;;6217131;23;20151;-92
2021/03/01 12:27:20;;;;;;;5.30;2.50;;;;;;;;;;6218012;23;20447;-92
2021/03/01 12:29:46;;;;;;;5.35;2.60;;;;;;;;;;6193152;23;19996;-92
2021/03/01 12:32:12;;;;;;;5.70;2.80;;;;;;;;;;6215579;23;20009;-91
2021/03/01 12:34:41;;;;;;;5.10;3.03;;;;;;;;;;6217983;23;20004;-91
2021/03/01 12:37:07;;;;;;;7.10;2.60;;;;;;;;;;6219398;23;20086;-92
2021/03/01 12:39:33;;;;;;;8.85;2.58;;;;;;;;;;6218798;23;20068;-91
2021/03/01 12:41:59;;;;;;;6.20;3.00;;;;;;;;;;6219944;23;20004;-93
2021/03/01 12:44:25;;;;;;;4.70;2.85;;;;;;;;;;6221488;23;20032;-93
2021/03/01 12:46:51;;;;;;;4.78;3.03;;;;;;;;;;6222453;23;20051;-93
2021/03/01 12:49:17;;;;;;;8.02;3.38;;;;;;;;;;6220403;23;20060;-92
2021/03/01 12:51:43;;;;;;;5.13;2.75;;;;;;;;;;6222668;23;20087;-93
2021/03/01 12:54:09;;;;;;;6.65;3.55;;;;;;;;;;6221235;23;20005;-92
2021/03/01 12:56:35;;;;;;;5.13;3.05;;;;;;;;;;6220469;23;20032;-92
2021/03/01 12:59:02;;;;;;;7.40;3.50;;;;;;;;;;6221776;23;20020;-93
2021/03/01 13:01:28;;;;;;;6.20;3.28;;;;;;;;;;6220030;23;20001;-91
2021/03/01 13:03:54;;;;;;;5.90;3.00;;;;;;;;;;6221015;23;20008;-91
2021/03/01 13:06:20;;;;;;;5.90;3.10;;;;;;;;;;6222290;23;20001;-93
2021/03/01 13:08:49;;;;;;;6.05;3.03;;;;;;;;;;6218610;23;20036;-91
2021/03/01 13:11:17;;;;;;;6.57;3.58;;;;;;;;;;6220383;23;20036;-92
2021/03/01 13:13:46;;;;;;;5.80;2.97;;;;;;;;;;6219278;23;20012;-93
2021/03/01 13:16:12;;;;;;;6.32;3.38;;;;;;;;;;6218677;23;20387;-93
2021/03/01 13:18:38;;;;;;;6.93;2.85;;;;;;;;;;6218761;23;20027;-93
2021/03/01 13:21:04;;;;;;;6.05;3.33;;;;;;;;;;6222050;23;20046;-92
2021/03/01 13:23:32;;;;;;;6.05;3.03;;;;;;;;;;6219995;23;20005;-91
2021/03/01 13:25:58;;;;;;;5.00;2.90;;;;;;;;;;6219287;23;20011;-91
2021/03/01 13:28:24;;;;;;;5.72;3.28;;;;;;;;;;6220653;23;20078;-93
2021/03/01 13:30:53;;;;;;;11.65;3.35;;;;;;;;;;6222328;23;20008;-93
2021/03/01 13:33:22;;;;;;;7.45;3.40;;;;;;;;;;6214778;23;20005;-90
2021/03/01 13:35:48;;;;;;;5.20;3.05;;;;;;;;;;6214884;23;20008;-93
2021/03/01 13:38:17;;;;;;;5.75;3.50;;;;;;;;;;6215302;23;20059;-93
2021/03/01 13:40:43;;;;;;;8.18;3.53;;;;;;;;;;6216265;23;20004;-94
2021/03/01 13:43:09;;;;;;;6.07;3.35;;;;;;;;;;6214289;23;20011;-92
2021/03/01 13:45:36;;;;;;;6.35;3.10;;;;;;;;;;6215197;23;20009;-92
2021/03/01 13:48:02;;;;;;;5.93;3.20;;;;;;;;;;6214613;23;20012;-92
2021/03/01 13:50:28;;;;;;;6.65;3.35;;;;;;;;;;6214401;23;20036;-92
2021/03/01 13:52:57;;;;;;;5.72;3.20;;;;;;;;;;6215703;23;20009;-93
2021/03/01 13:55:23;;;;;;;5.55;3.30;;;;;;;;;;6215263;23;20462;-91
2021/03/01 13:57:49;;;;;;;6.63;3.47;;;;;;;;;;6214546;23;20024;-92
2021/03/01 14:00:16;;;;;;;6.20;3.40;;;;;;;;;;6214714;23;20004;-92
2021/03/01 14:02:42;;;;;;;7.82;4.35;;;;;;;;;;6215346;23;20047;-91
2021/03/01 14:05:09;;;;;;;7.78;4.32;;;;;;;;;;6216460;23;20000;-92
2021/03/01 14:07:35;;;;;;;6.85;3.83;;;;;;;;;;6230907;23;20016;-92
2021/03/01 14:10:01;;;;;;;7.82;3.80;;;;;;;;;;6231463;23;20024;-92
2021/03/01 14:12:27;;;;;;;9.45;4.35;;;;;;;;;;6233871;23;19985;-90
2021/03/01 14:14:53;;;;;;;6.10;3.55;;;;;;;;;;6238853;23;20008;-89
2021/03/01 14:17:20;;;;;;;6.20;3.70;;;;;;;;;;6226106;23;20010;-91
2021/03/01 14:19:46;;;;;;;7.53;3.92;;;;;;;;;;6214531;23;20087;-90
2021/03/01 14:22:12;;;;;;;5.97;3.60;;;;;;;;;;6215624;23;20015;-92
2021/03/01 14:24:38;;;;;;;7.20;3.80;;;;;;;;;;6215132;23;20058;-91
2021/03/01 14:27:05;;;;;;;7.28;3.90;;;;;;;;;;6213972;23;20004;-91
2021/03/01 14:29:31;;;;;;;5.68;3.47;;;;;;;;;;6215164;23;20451;-92
2021/03/01 14:31:57;;;;;;;5.38;3.30;;;;;;;;;;6215480;23;20449;-92
2021/03/01 14:34:23;;;;;;;6.00;3.35;;;;;;;;;;6214452;23;20018;-92
2021/03/01 14:36:49;;;;;;;5.90;3.70;;;;;;;;;;6211886;23;20092;-92